Time;durP1;ratioP1;P1;durP2;ratioP2;P2;SDS_P1;SDS_P2;PMS_P1;PMS_P2;Temp;Humidity;BMP_temperature;BMP_pressure;BME280_temperature;BME280_humidity;BME280_pressure;Samples;Min_cycle;Max_cycle;Signal;HPM_P1;HPM_P2
2022/10/25 00:01:47;;;;;;;;;;;12.20;99.90;;;;;;4958648;28;19926;-76
2022/10/25 00:04:13;;;;;;;;;;;12.20;99.90;;;;;;4975586;28;19996;-76
2022/10/25 00:06:39;;;;;;;;;;;12.20;99.90;;;;;;4975662;28;19926;-76
2022/10/25 00:09:04;;;;;;;;;;;12.20;99.90;;;;;;4959075;28;20289;-76
2022/10/25 00:11:30;;;;;;;;;;;12.20;99.90;;;;;;4974969;28;19973;-76
2022/10/25 00:13:58;;;;;;;;;;;12.20;99.90;;;;;;4975881;28;19937;-76
2022/10/25 00:16:24;;;;;;;;;;;12.30;99.90;;;;;;4975127;28;20009;-76
2022/10/25 00:18:50;;;;;;;;;;;12.30;99.90;;;;;;4975457;28;19926;-76
2022/10/25 00:21:16;;;;;;;;;;;12.40;99.90;;;;;;4958327;28;20293;-75
2022/10/25 00:23:42;;;;;;;;;;;12.40;99.90;;;;;;4958542;28;19937;-76
2022/10/25 00:26:08;;;;;;;;;;;12.40;99.90;;;;;;4958797;28;19933;-76
2022/10/25 00:28:34;;;;;;;;;;;12.40;99.90;;;;;;4958591;28;20069;-76
2022/10/25 00:31:10;;;;;;;;;;;12.50;99.90;;;;;;4975725;28;20017;-76
2022/10/25 00:33:36;;;;;;;;;;;12.60;99.90;;;;;;4958515;28;19926;-76
2022/10/25 00:36:03;;;;;;;;;;;12.70;99.90;;;;;;4958471;28;19926;-76
2022/10/25 00:38:30;;;;;;;;;;;12.70;99.90;;;;;;4957378;28;20310;-77
2022/10/25 00:40:56;;;;;;;;;;;12.80;99.90;;;;;;4958283;28;19980;-76
2022/10/25 00:43:41;;;;;;;;;;;12.70;99.90;;;;;;4957780;28;20039;-76
2022/10/25 00:46:13;;;;;;;;;;;12.70;99.90;;;;;;4958094;28;19926;-76
2022/10/25 00:48:40;;;;;;;;;;;12.80;99.90;;;;;;4956839;28;20382;-76
2022/10/25 00:51:06;;;;;;;;;;;12.80;99.90;;;;;;4958171;28;20418;-77
2022/10/25 00:53:35;;;;;;;;;;;12.80;99.90;;;;;;4958194;28;19932;-76
2022/10/25 00:56:02;;;;;;;;;;;12.80;99.90;;;;;;4958170;28;19934;-77
2022/10/25 00:58:30;;;;;;;;;;;12.80;99.90;;;;;;4957492;28;20399;-76
2022/10/25 01:00:56;;;;;;;;;;;12.80;99.90;;;;;;4974934;28;19926;-76
2022/10/25 01:03:22;;;;;;;;;;;12.80;99.90;;;;;;4957232;28;20409;-76
2022/10/25 01:05:48;;;;;;;;;;;12.80;99.90;;;;;;4957579;28;20389;-76
2022/10/25 01:08:15;;;;;;;;;;;12.70;99.90;;;;;;4957939;28;19948;-76
2022/10/25 01:10:40;;;;;;;;;;;12.70;99.90;;;;;;4957576;28;19929;-76
2022/10/25 01:13:06;;;;;;;;;;;12.70;99.90;;;;;;4957603;28;19930;-76
2022/10/25 01:15:40;;;;;;;;;;;12.70;99.90;;;;;;4975163;28;19932;-77
2022/10/25 01:18:09;;;;;;;;;;;12.60;99.90;;;;;;4957331;28;20473;-76
2022/10/25 01:20:38;;;;;;;;;;;12.60;99.90;;;;;;4957398;28;19933;-77
2022/10/25 01:23:07;;;;;;;;;;;12.60;99.90;;;;;;4957524;28;20475;-76
2022/10/25 01:25:44;;;;;;;;;;;12.60;99.90;;;;;;4957279;28;19933;-76
2022/10/25 01:28:23;;;;;;;;;;;12.60;99.90;;;;;;4956882;28;19926;-77
2022/10/25 01:30:48;;;;;;;;;;;12.60;99.90;;;;;;4957090;28;19926;-76
2022/10/25 01:33:14;;;;;;;;;;;12.60;99.90;;;;;;4957637;28;19926;-76
2022/10/25 01:35:39;;;;;;;;;;;12.60;99.90;;;;;;4957326;28;20009;-76
2022/10/25 01:38:11;;;;;;;;;;;12.60;99.90;;;;;;4957093;28;19933;-76
2022/10/25 01:41:09;;;;;;;;;;;12.60;99.90;;;;;;4940857;28;19937;-77
2022/10/25 01:43:53;;;;;;;;;;;12.60;99.90;;;;;;4915551;28;19926;-82
2022/10/25 01:46:23;;;;;;;;;;;12.50;99.90;;;;;;4957283;28;19932;-77
2022/10/25 01:48:51;;;;;;;;;;;12.60;99.90;;;;;;4957126;28;19926;-76
2022/10/25 01:51:17;;;;;;;;;;;12.60;99.90;;;;;;4956648;28;19926;-76
2022/10/25 01:53:47;;;;;;;;;;;12.60;99.90;;;;;;4957547;28;20005;-76
2022/10/25 01:56:35;;;;;;;;;;;12.50;99.90;;;;;;4957361;28;19926;-76
2022/10/25 01:59:10;;;;;;;;;;;12.60;99.90;;;;;;4943616;28;20009;-76
2022/10/25 02:01:42;;;;;;;;;;;12.50;99.90;;;;;;4941178;28;19926;-76
2022/10/25 02:04:13;;;;;;;;;;;12.50;99.90;;;;;;4957725;28;19926;-76
2022/10/25 02:06:53;;;;;;;;;;;12.60;99.90;;;;;;4957011;28;20020;-77
2022/10/25 02:09:24;;;;;;;;;;;12.60;99.90;;;;;;4957341;28;19930;-76
2022/10/25 02:11:51;;;;;;;;;;;12.60;99.90;;;;;;4940787;28;19927;-76
2022/10/25 02:14:16;;;;;;;;;;;12.60;99.90;;;;;;4974323;28;19941;-77
2022/10/25 02:16:51;;;;;;;;;;;12.60;99.90;;;;;;4956479;28;19927;-76
2022/10/25 02:19:19;;;;;;;;;;;12.60;99.90;;;;;;4956943;28;20345;-76
2022/10/25 02:21:46;;;;;;;;;;;12.60;99.90;;;;;;4956632;28;20005;-76
2022/10/25 02:24:20;;;;;;;;;;;12.60;99.90;;;;;;4922477;29;19981;-77
2022/10/25 02:26:47;;;;;;;;;;;12.50;99.90;;;;;;4958969;28;19932;-76
2022/10/25 02:29:13;;;;;;;;;;;12.50;99.90;;;;;;4973920;28;20290;-76
2022/10/25 02:31:38;;;;;;;;;;;12.40;99.90;;;;;;4957110;28;20013;-76
2022/10/25 02:34:04;;;;;;;;;;;12.40;99.90;;;;;;4956935;28;19980;-76
2022/10/25 02:36:30;;;;;;;;;;;12.40;99.90;;;;;;4957081;28;20442;-76
2022/10/25 02:38:56;;;;;;;;;;;12.30;99.90;;;;;;4958829;28;19926;-76
2022/10/25 02:41:22;;;;;;;;;;;12.30;99.90;;;;;;4960137;28;20285;-76
2022/10/25 02:43:47;;;;;;;;;;;12.30;99.90;;;;;;4960015;28;19926;-76
2022/10/25 02:46:14;;;;;;;;;;;12.20;99.90;;;;;;4944621;28;19926;-76
2022/10/25 02:48:40;;;;;;;;;;;12.30;99.90;;;;;;4959757;28;20382;-76
2022/10/25 02:51:06;;;;;;;;;;;12.20;99.90;;;;;;4960318;28;20394;-76
2022/10/25 02:53:33;;;;;;;;;;;12.20;99.90;;;;;;4944011;28;19934;-77
2022/10/25 02:55:59;;;;;;;;;;;12.20;99.90;;;;;;4960285;28;19930;-76
2022/10/25 02:58:25;;;;;;;;;;;12.10;99.90;;;;;;4960066;28;19926;-77
2022/10/25 03:00:50;;;;;;;;;;;12.10;99.90;;;;;;4977170;28;19926;-76
2022/10/25 03:03:16;;;;;;;;;;;12.10;99.90;;;;;;4960017;28;19978;-76
2022/10/25 03:05:43;;;;;;;;;;;12.10;99.90;;;;;;4960013;28;20351;-76
2022/10/25 03:08:08;;;;;;;;;;;12.10;99.90;;;;;;4977452;28;19933;-75
2022/10/25 03:10:35;;;;;;;;;;;12.10;99.90;;;;;;4959785;28;19930;-76
2022/10/25 03:13:01;;;;;;;;;;;12.10;99.90;;;;;;4976431;28;19926;-75
2022/10/25 03:15:26;;;;;;;;;;;12.00;99.90;;;;;;4960012;28;19989;-76
2022/10/25 03:17:52;;;;;;;;;;;12.00;99.90;;;;;;4959011;28;19969;-76
2022/10/25 03:20:17;;;;;;;;;;;12.00;99.90;;;;;;4959347;28;19976;-76
2022/10/25 03:22:43;;;;;;;;;;;12.00;99.90;;;;;;4959821;28;19989;-76
2022/10/25 03:25:08;;;;;;;;;;;11.90;99.90;;;;;;4959471;28;19926;-76
2022/10/25 03:27:34;;;;;;;;;;;11.90;99.90;;;;;;4940706;28;19953;-75
2022/10/25 03:29:59;;;;;;;;;;;11.90;99.90;;;;;;4959021;28;19965;-76
2022/10/25 03:32:25;;;;;;;;;;;11.80;99.90;;;;;;4959489;28;19926;-76
2022/10/25 03:34:51;;;;;;;;;;;11.80;99.90;;;;;;4959125;28;20004;-76
2022/10/25 03:37:16;;;;;;;;;;;11.80;99.90;;;;;;4977047;28;20285;-76
2022/10/25 03:39:42;;;;;;;;;;;11.70;99.90;;;;;;4959939;28;19927;-76
2022/10/25 03:42:07;;;;;;;;;;;11.70;99.90;;;;;;4959050;28;19927;-76
2022/10/25 03:44:33;;;;;;;;;;;11.70;99.90;;;;;;4943632;28;20316;-76
2022/10/25 03:46:58;;;;;;;;;;;11.70;99.90;;;;;;4959319;28;19966;-76
2022/10/25 03:49:25;;;;;;;;;;;11.70;99.90;;;;;;4943051;28;19930;-76
2022/10/25 03:51:51;;;;;;;;;;;11.70;99.90;;;;;;4958871;28;19965;-76
2022/10/25 03:54:16;;;;;;;;;;;11.70;99.90;;;;;;4959152;28;19976;-76
2022/10/25 03:56:42;;;;;;;;;;;11.70;99.90;;;;;;4958933;28;19933;-76
2022/10/25 03:59:07;;;;;;;;;;;11.70;99.90;;;;;;4976231;28;19926;-76
2022/10/25 04:01:33;;;;;;;;;;;11.80;99.90;;;;;;4958850;28;20412;-76
2022/10/25 04:03:58;;;;;;;;;;;11.80;99.90;;;;;;4976051;28;19986;-76
2022/10/25 04:06:24;;;;;;;;;;;11.80;99.90;;;;;;4959622;28;19933;-76
2022/10/25 04:08:49;;;;;;;;;;;11.90;99.90;;;;;;4958457;28;20011;-83
2022/10/25 04:11:15;;;;;;;;;;;12.00;99.90;;;;;;4942759;28;19926;-76
2022/10/25 04:13:41;;;;;;;;;;;12.00;99.90;;;;;;4959183;28;19926;-76
2022/10/25 04:16:07;;;;;;;;;;;11.90;99.90;;;;;;4958360;28;19930;-76
2022/10/25 04:18:33;;;;;;;;;;;11.90;99.90;;;;;;4959300;28;19930;-76
2022/10/25 04:20:59;;;;;;;;;;;11.90;99.90;;;;;;4958361;28;19933;-76
2022/10/25 04:23:24;;;;;;;;;;;11.90;99.90;;;;;;4957780;28;19926;-76
2022/10/25 04:25:50;;;;;;;;;;;11.90;99.90;;;;;;4943096;28;19926;-76
2022/10/25 04:28:16;;;;;;;;;;;11.80;99.90;;;;;;4958807;28;19968;-76
2022/10/25 04:30:41;;;;;;;;;;;11.90;99.90;;;;;;4958524;28;20045;-76
2022/10/25 04:33:08;;;;;;;;;;;11.90;99.90;;;;;;4958802;28;19926;-76
2022/10/25 04:35:34;;;;;;;;;;;11.90;99.90;;;;;;4975448;28;20012;-76
2022/10/25 04:38:00;;;;;;;;;;;11.80;99.90;;;;;;4958135;28;19972;-76
2022/10/25 04:40:25;;;;;;;;;;;11.80;99.90;;;;;;4958169;28;19985;-76
2022/10/25 04:42:51;;;;;;;;;;;11.80;99.90;;;;;;4958168;28;19933;-76
2022/10/25 04:45:16;;;;;;;;;;;11.80;99.90;;;;;;4958208;28;19930;-76
2022/10/25 04:47:42;;;;;;;;;;;11.80;99.90;;;;;;4958313;28;20382;-76
2022/10/25 04:50:08;;;;;;;;;;;11.80;99.90;;;;;;4941957;28;19927;-76
2022/10/25 04:52:33;;;;;;;;;;;11.70;99.90;;;;;;4957559;28;19933;-76
2022/10/25 04:54:59;;;;;;;;;;;11.70;99.90;;;;;;4958216;28;19926;-76
2022/10/25 04:57:24;;;;;;;;;;;11.70;99.90;;;;;;4975426;28;19926;-76
2022/10/25 04:59:51;;;;;;;;;;;11.80;99.90;;;;;;4957992;28;19926;-76
2022/10/25 05:02:17;;;;;;;;;;;11.80;99.90;;;;;;4940749;28;19930;-76
2022/10/25 05:04:42;;;;;;;;;;;11.80;99.90;;;;;;4941872;28;19933;-76
2022/10/25 05:07:08;;;;;;;;;;;11.70;99.90;;;;;;4957807;28;19926;-76
2022/10/25 05:09:33;;;;;;;;;;;11.70;99.90;;;;;;4973878;28;19932;-76
2022/10/25 05:11:59;;;;;;;;;;;11.60;99.90;;;;;;4957621;28;19933;-77
2022/10/25 05:14:24;;;;;;;;;;;11.60;99.90;;;;;;4957825;28;19926;-76
2022/10/25 05:16:50;;;;;;;;;;;11.60;99.90;;;;;;4957754;28;19982;-76
2022/10/25 05:19:15;;;;;;;;;;;11.50;99.90;;;;;;4957434;28;19997;-76
2022/10/25 05:21:41;;;;;;;;;;;11.50;99.90;;;;;;4957554;28;19932;-76
2022/10/25 05:24:07;;;;;;;;;;;11.50;99.90;;;;;;4957703;28;19926;-76
2022/10/25 05:26:32;;;;;;;;;;;11.40;99.90;;;;;;4956489;28;20040;-78
2022/10/25 05:28:58;;;;;;;;;;;11.40;99.90;;;;;;4940657;28;19933;-82
2022/10/25 05:31:25;;;;;;;;;;;11.40;99.90;;;;;;4957759;28;19985;-76
2022/10/25 05:33:51;;;;;;;;;;;11.30;99.90;;;;;;4973876;28;19933;-76
2022/10/25 05:36:17;;;;;;;;;;;11.30;99.90;;;;;;4957004;28;19926;-76
2022/10/25 05:38:43;;;;;;;;;;;11.30;99.90;;;;;;4941253;28;20293;-76
2022/10/25 05:41:09;;;;;;;;;;;11.20;99.90;;;;;;4957173;28;20037;-76
2022/10/25 05:43:35;;;;;;;;;;;11.20;99.90;;;;;;4957296;28;20150;-78
2022/10/25 05:46:05;;;;;;;;;;;11.30;99.90;;;;;;4956929;28;20382;-77
2022/10/25 05:48:31;;;;;;;;;;;11.20;99.90;;;;;;4957105;28;19933;-76
2022/10/25 05:51:18;;;;;;;;;;;11.30;99.90;;;;;;4973986;28;19932;-76
2022/10/25 05:53:45;;;;;;;;;;;11.30;99.90;;;;;;4957525;28;19926;-76
2022/10/25 05:56:11;;;;;;;;;;;11.30;99.90;;;;;;4957091;28;19926;-76
2022/10/25 05:58:37;;;;;;;;;;;11.30;99.90;;;;;;4959595;28;19930;-76
2022/10/25 06:01:02;;;;;;;;;;;11.30;99.90;;;;;;4958974;28;20293;-77
2022/10/25 06:03:28;;;;;;;;;;;11.30;99.90;;;;;;4957215;28;20020;-76
2022/10/25 06:05:54;;;;;;;;;;;11.30;99.90;;;;;;4967398;28;20411;-75
2022/10/25 06:08:19;;;;;;;;;;;11.30;99.90;;;;;;4957234;28;19926;-76
2022/10/25 06:10:45;;;;;;;;;;;11.30;99.90;;;;;;4937711;29;20298;-75
2022/10/25 06:13:10;;;;;;;;;;;11.30;99.90;;;;;;4950701;28;19969;-75
2022/10/25 06:15:39;;;;;;;;;;;11.30;99.90;;;;;;4961279;28;19981;-76
2022/10/25 06:18:04;;;;;;;;;;;11.30;99.90;;;;;;4960629;28;19926;-76
2022/10/25 06:20:30;;;;;;;;;;;11.30;99.90;;;;;;4961158;28;20400;-75
2022/10/25 06:22:55;;;;;;;;;;;11.30;99.90;;;;;;4960716;28;19989;-76
2022/10/25 06:25:21;;;;;;;;;;;11.40;99.90;;;;;;4960491;28;19926;-75
2022/10/25 06:27:46;;;;;;;;;;;11.30;99.90;;;;;;4961201;28;19930;-75
2022/10/25 06:30:12;;;;;;;;;;;11.40;99.90;;;;;;4977737;28;20330;-75
2022/10/25 06:32:37;;;;;;;;;;;11.30;99.90;;;;;;4977778;28;19926;-76
2022/10/25 06:35:03;;;;;;;;;;;11.30;99.90;;;;;;4960698;28;19926;-76
2022/10/25 06:37:29;;;;;;;;;;;11.30;99.90;;;;;;4960648;28;19926;-76
2022/10/25 06:39:54;;;;;;;;;;;11.20;99.90;;;;;;4960740;28;19926;-76
2022/10/25 06:42:20;;;;;;;;;;;11.30;99.90;;;;;;4960436;28;19926;-76
2022/10/25 06:44:46;;;;;;;;;;;11.20;99.90;;;;;;4967907;28;19941;-76
2022/10/25 06:47:11;;;;;;;;;;;11.20;99.90;;;;;;4940367;28;19966;-76
2022/10/25 06:49:37;;;;;;;;;;;11.20;99.90;;;;;;4959629;28;19926;-76
2022/10/25 06:52:02;;;;;;;;;;;11.20;99.90;;;;;;4959573;28;19984;-76
2022/10/25 06:54:28;;;;;;;;;;;11.20;99.90;;;;;;4960177;28;20385;-76
2022/10/25 06:56:53;;;;;;;;;;;11.20;99.90;;;;;;4943979;28;19948;-76
2022/10/25 06:59:19;;;;;;;;;;;11.30;99.90;;;;;;4928492;28;19930;-76
2022/10/25 07:01:45;;;;;;;;;;;11.30;99.90;;;;;;4944093;28;19932;-76
2022/10/25 07:04:10;;;;;;;;;;;11.30;99.90;;;;;;4960176;28;19929;-76
2022/10/25 07:06:36;;;;;;;;;;;11.20;99.90;;;;;;4959884;28;20350;-77
2022/10/25 07:09:03;;;;;;;;;;;11.30;99.90;;;;;;4975737;28;19953;-76
2022/10/25 07:11:29;;;;;;;;;;;11.30;99.90;;;;;;4959864;28;19930;-76
2022/10/25 07:13:57;;;;;;;;;;;11.30;99.90;;;;;;4960438;28;19926;-76
2022/10/25 07:16:23;;;;;;;;;;;11.30;99.90;;;;;;4959406;28;20289;-76
2022/10/25 07:18:49;;;;;;;;;;;11.40;99.90;;;;;;4958342;28;19938;-77
2022/10/25 07:21:14;;;;;;;;;;;11.40;99.90;;;;;;4959069;28;20326;-76
2022/10/25 07:23:42;;;;;;;;;;;11.40;99.90;;;;;;4959329;28;19926;-81
2022/10/25 07:26:12;;;;;;;;;;;11.40;99.90;;;;;;4958241;28;19984;-75
2022/10/25 07:28:37;;;;;;;;;;;11.50;99.90;;;;;;4959808;28;19926;-77
2022/10/25 07:31:03;;;;;;;;;;;11.50;99.90;;;;;;4952495;28;19926;-77
2022/10/25 07:33:29;;;;;;;;;;;11.60;99.90;;;;;;4959428;28;19926;-76
2022/10/25 07:35:56;;;;;;;;;;;11.60;99.90;;;;;;4959655;28;19976;-76
2022/10/25 07:38:21;;;;;;;;;;;11.60;99.90;;;;;;4976174;28;19926;-77
2022/10/25 07:40:47;;;;;;;;;;;11.60;99.90;;;;;;4971880;28;19949;-75
2022/10/25 07:43:12;;;;;;;;;;;11.60;99.90;;;;;;4957977;28;19926;-80
2022/10/25 07:45:38;;;;;;;;;;;11.60;99.90;;;;;;4959658;28;19926;-77
2022/10/25 07:48:04;;;;;;;;;;;11.70;99.90;;;;;;4976704;28;19982;-76
2022/10/25 07:50:29;;;;;;;;;;;11.80;99.90;;;;;;4957824;28;19930;-76
2022/10/25 07:52:56;;;;;;;;;;;12.00;99.90;;;;;;4959034;28;19927;-78
2022/10/25 07:55:22;;;;;;;;;;;12.10;99.90;;;;;;4943590;28;20000;-77
2022/10/25 07:57:48;;;;;;;;;;;12.20;99.90;;;;;;4975983;28;20390;-77
2022/10/25 08:00:13;;;;;;;;;;;12.30;99.90;;;;;;4966822;28;19927;-81
2022/10/25 08:02:39;;;;;;;;;;;12.40;99.90;;;;;;4939334;28;20018;-77
2022/10/25 08:05:05;;;;;;;;;;;12.50;99.90;;;;;;4943314;28;19933;-77
2022/10/25 08:07:30;;;;;;;;;;;12.50;99.90;;;;;;4958747;28;19926;-77
2022/10/25 08:09:56;;;;;;;;;;;12.60;99.90;;;;;;4959100;28;19930;-76
2022/10/25 08:12:21;;;;;;;;;;;12.60;99.90;;;;;;4975814;28;19933;-85
2022/10/25 08:14:47;;;;;;;;;;;12.70;99.90;;;;;;4943150;28;19949;-88
2022/10/25 08:17:12;;;;;;;;;;;12.80;99.90;;;;;;4958108;28;19984;-78
2022/10/25 08:19:38;;;;;;;;;;;12.90;99.90;;;;;;4975820;28;19981;-77
2022/10/25 08:22:03;;;;;;;;;;;13.00;99.90;;;;;;4958859;28;19933;-75
2022/10/25 08:24:29;;;;;;;;;;;13.10;99.90;;;;;;4942601;28;19926;-75
2022/10/25 08:26:55;;;;;;;;;;;13.20;99.90;;;;;;4958229;28;20421;-74
2022/10/25 08:29:20;;;;;;;;;;;13.20;99.90;;;;;;4958135;28;19976;-74
2022/10/25 08:31:46;;;;;;;;;;;13.20;99.90;;;;;;4958926;28;19926;-75
2022/10/25 08:34:11;;;;;;;;;;;13.20;99.90;;;;;;4954241;28;19933;-76
2022/10/25 08:36:37;;;;;;;;;;;13.20;99.90;;;;;;4955231;28;20177;-76
2022/10/25 08:39:02;;;;;;;;;;;13.20;99.90;;;;;;4956235;28;19949;-78
2022/10/25 08:41:51;;;;;;;;;;;13.30;99.90;;;;;;4972311;28;19937;-76
2022/10/25 08:44:23;;;;;;;;;;;13.30;99.90;;;;;;4946154;28;20297;-75
2022/10/25 08:46:51;;;;;;;;;;;13.50;99.90;;;;;;4955390;28;19939;-76
2022/10/25 08:49:17;;;;;;;;;;;13.60;99.90;;;;;;4973959;28;19937;-75
2022/10/25 08:51:45;;;;;;;;;;;13.70;99.90;;;;;;4955676;28;19927;-76
2022/10/25 08:54:19;;;;;;;;;;;13.70;99.90;;;;;;4954131;28;19930;-76
2022/10/25 08:56:45;;;;;;;;;;;13.80;99.90;;;;;;4955309;28;19930;-75
2022/10/25 08:59:14;;;;;;;;;;;13.80;99.90;;;;;;4973119;28;20524;-75
2022/10/25 09:01:43;;;;;;;;;;;13.80;99.90;;;;;;4953961;28;19973;-76
2022/10/25 09:04:09;;;;;;;;;;;13.80;99.90;;;;;;4970003;28;20005;-75
2022/10/25 09:06:39;;;;;;;;;;;13.90;99.90;;;;;;4971831;28;20371;-75
2022/10/25 09:09:05;;;;;;;;;;;13.90;99.90;;;;;;4938982;28;19930;-75
2022/10/25 09:11:43;;;;;;;;;;;13.90;99.90;;;;;;4954278;28;19989;-74
2022/10/25 09:14:08;;;;;;;;;;;13.90;99.90;;;;;;4953929;28;20001;-76
2022/10/25 09:16:43;;;;;;;;;;;13.90;99.90;;;;;;4954414;28;20021;-74
2022/10/25 09:19:19;;;;;;;;;;;13.90;99.90;;;;;;4970985;28;19930;-74
2022/10/25 09:22:01;;;;;;;;;;;14.00;99.90;;;;;;4953817;28;20393;-75
2022/10/25 09:24:28;;;;;;;;;;;14.00;99.90;;;;;;4970122;28;19934;-75
2022/10/25 09:27:13;;;;;;;;;;;14.00;99.90;;;;;;4971788;28;19936;-74
2022/10/25 09:29:38;;;;;;;;;;;14.00;99.90;;;;;;4970289;28;19926;-75
2022/10/25 09:32:06;;;;;;;;;;;14.00;99.90;;;;;;4954310;28;19926;-77
2022/10/25 09:34:32;;;;;;;;;;;14.10;99.90;;;;;;4954732;28;19926;-78
2022/10/25 09:37:02;;;;;;;;;;;14.20;99.90;;;;;;4954608;28;19930;-78
2022/10/25 09:39:34;;;;;;;;;;;14.30;99.90;;;;;;4954551;28;19940;-77
2022/10/25 09:42:01;;;;;;;;;;;14.40;99.90;;;;;;4952939;28;19936;-76
2022/10/25 09:44:39;;;;;;;;;;;14.50;99.90;;;;;;4956170;28;19969;-76
2022/10/25 09:47:11;;;;;;;;;;;14.70;99.90;;;;;;4956302;28;19950;-76
2022/10/25 09:49:40;;;;;;;;;;;14.70;99.90;;;;;;4955681;28;19930;-74
2022/10/25 09:52:06;;;;;;;;;;;14.80;99.90;;;;;;4972603;28;19930;-76
2022/10/25 09:54:37;;;;;;;;;;;14.80;99.90;;;;;;4953948;28;19936;-75
2022/10/25 09:57:02;;;;;;;;;;;14.90;99.90;;;;;;4956269;28;20009;-75
2022/10/25 09:59:28;;;;;;;;;;;14.90;99.90;;;;;;4972482;28;19926;-76
2022/10/25 10:01:54;;;;;;;;;;;14.90;99.90;;;;;;4956597;28;19926;-75
2022/10/25 10:04:26;;;;;;;;;;;14.80;99.90;;;;;;4972366;28;19926;-75
2022/10/25 10:06:56;;;;;;;;;;;14.80;99.90;;;;;;4956028;28;19981;-75
2022/10/25 10:09:23;;;;;;;;;;;14.80;99.90;;;;;;4956305;28;20290;-77
2022/10/25 10:11:51;;;;;;;;;;;14.80;99.90;;;;;;4956214;28;19933;-75
2022/10/25 10:14:21;;;;;;;;;;;14.90;99.90;;;;;;4970636;28;19937;-77
2022/10/25 10:16:48;;;;;;;;;;;14.90;99.90;;;;;;4949363;28;19937;-77
2022/10/25 10:19:17;;;;;;;;;;;14.90;99.90;;;;;;4951757;28;19927;-77
2022/10/25 10:21:43;;;;;;;;;;;14.90;99.90;;;;;;4954430;28;19957;-79
2022/10/25 10:24:21;;;;;;;;;;;15.00;99.90;;;;;;4952945;28;19926;-75
2022/10/25 10:26:54;;;;;;;;;;;15.00;99.90;;;;;;4952582;28;19934;-76
2022/10/25 10:29:21;;;;;;;;;;;15.00;99.90;;;;;;4947748;28;19934;-76
2022/10/25 10:31:48;;;;;;;;;;;15.10;99.90;;;;;;4955475;28;19926;-76
2022/10/25 10:34:22;;;;;;;;;;;15.30;99.90;;;;;;4970610;28;20298;-76
2022/10/25 10:36:59;;;;;;;;;;;15.40;99.90;;;;;;4956105;28;19930;-76
2022/10/25 10:39:24;;;;;;;;;;;15.40;99.90;;;;;;4956491;28;19930;-76
2022/10/25 10:41:59;;;;;;;;;;;15.40;99.90;;;;;;4972124;28;19932;-78
2022/10/25 10:44:25;;;;;;;;;;;15.40;99.90;;;;;;4971846;28;20464;-76
2022/10/25 10:46:53;;;;;;;;;;;15.50;99.90;;;;;;4954009;28;19938;-77
2022/10/25 10:49:19;;;;;;;;;;;15.60;99.90;;;;;;4971623;28;19980;-76
2022/10/25 10:51:45;;;;;;;;;;;15.60;99.90;;;;;;4971303;28;19988;-76
2022/10/25 10:54:22;;;;;;;;;;;15.70;99.90;;;;;;4968838;28;20389;-75
2022/10/25 10:56:58;;;;;;;;;;;15.70;99.90;;;;;;4949449;28;19934;-80
2022/10/25 10:59:33;;;;;;;;;;;15.70;99.90;;;;;;4969556;28;20461;-75
2022/10/25 11:02:09;;;;;;;;;;;15.60;99.90;;;;;;4972538;28;19926;-76
2022/10/25 11:04:45;;;;;;;;;;;15.70;99.90;;;;;;4965441;28;19937;-76
2022/10/25 11:07:26;;;;;;;;;;;15.70;99.90;;;;;;4976965;28;19929;-76
2022/10/25 11:09:52;;;;;;;;;;;15.60;99.90;;;;;;4994837;28;19969;-76
2022/10/25 11:12:18;;;;;;;;;;;15.50;99.90;;;;;;4995428;28;20325;-77
2022/10/25 11:14:43;;;;;;;;;;;15.40;99.90;;;;;;4978273;28;20008;-76
2022/10/25 11:17:09;;;;;;;;;;;15.30;99.90;;;;;;4977697;28;19933;-77
2022/10/25 11:19:41;;;;;;;;;;;15.20;99.90;;;;;;4961905;28;19930;-76
2022/10/25 11:22:19;;;;;;;;;;;15.30;99.90;;;;;;4977305;28;19976;-78
2022/10/25 11:24:54;;;;;;;;;;;15.20;99.90;;;;;;4976898;28;19926;-77
2022/10/25 11:27:35;;;;;;;;;;;15.20;99.90;;;;;;4968082;28;19976;-82
2022/10/25 11:30:08;;;;;;;;;;;15.10;99.90;;;;;;4954586;28;20069;-75
2022/10/25 11:32:52;;;;;;;;;;;15.10;99.90;;;;;;4957365;28;19949;-76
2022/10/25 11:35:18;;;;;;;;;;;15.00;99.90;;;;;;4957684;28;19971;-76
2022/10/25 11:38:02;;;;;;;;;;;14.90;99.90;;;;;;4957383;28;19981;-77
2022/10/25 11:40:29;;;;;;;;;;;14.90;99.90;;;;;;4957225;28;20447;-75
2022/10/25 11:43:13;;;;;;;;;;;14.90;99.90;;;;;;4973492;28;20045;-76
2022/10/25 11:45:47;;;;;;;;;;;14.90;99.90;;;;;;4956768;28;19984;-79
2022/10/25 11:48:21;;;;;;;;;;;15.10;99.90;;;;;;4974192;28;19926;-76
2022/10/25 11:50:53;;;;;;;;;;;15.20;99.90;;;;;;4957989;28;19934;-76
2022/10/25 11:53:42;;;;;;;;;;;15.10;99.90;;;;;;4973141;28;20396;-77
2022/10/25 11:56:22;;;;;;;;;;;15.20;99.90;;;;;;4949942;28;19926;-77
2022/10/25 11:58:48;;;;;;;;;;;15.20;99.90;;;;;;4957183;28;19949;-80
2022/10/25 12:01:22;;;;;;;;;;;15.20;99.90;;;;;;4975004;28;20378;-77
2022/10/25 12:04:07;;;;;;;;;;;15.10;99.90;;;;;;4957662;28;20374;-78
2022/10/25 12:06:46;;;;;;;;;;;15.20;99.90;;;;;;4974943;28;19930;-78
2022/10/25 12:09:12;;;;;;;;;;;15.10;99.90;;;;;;4956765;28;19926;-75
2022/10/25 12:11:44;;;;;;;;;;;15.10;99.90;;;;;;4940042;28;19937;-76
2022/10/25 12:14:12;;;;;;;;;;;15.20;99.90;;;;;;4956573;28;19926;-76
2022/10/25 12:16:39;;;;;;;;;;;15.20;99.90;;;;;;4973703;28;19926;-75
2022/10/25 12:19:18;;;;;;;;;;;15.30;99.90;;;;;;4956194;28;19977;-76
2022/10/25 12:21:46;;;;;;;;;;;15.30;99.90;;;;;;4955267;28;20342;-75
2022/10/25 12:24:23;;;;;;;;;;;15.40;99.90;;;;;;4973237;28;19930;-76
2022/10/25 12:26:50;;;;;;;;;;;15.30;99.90;;;;;;4956621;28;20029;-76
2022/10/25 12:29:39;;;;;;;;;;;15.40;99.90;;;;;;4973646;28;19952;-77
2022/10/25 12:32:17;;;;;;;;;;;15.60;99.90;;;;;;4965238;28;19989;-75
2022/10/25 12:34:46;;;;;;;;;;;16.10;99.90;;;;;;4955728;28;19926;-77
2022/10/25 12:37:15;;;;;;;;;;;16.60;99.90;;;;;;4956978;28;19930;-76
2022/10/25 12:39:41;;;;;;;;;;;16.70;99.90;;;;;;4973419;28;19953;-75
2022/10/25 12:42:14;;;;;;;;;;;16.70;99.90;;;;;;4955951;28;20449;-74
2022/10/25 12:44:58;;;;;;;;;;;16.50;99.90;;;;;;4950637;28;20021;-76
2022/10/25 12:47:42;;;;;;;;;;;16.20;99.90;;;;;;4953594;29;19977;-75
2022/10/25 12:50:17;;;;;;;;;;;16.00;99.90;;;;;;4963041;28;19989;-75
2022/10/25 12:53:01;;;;;;;;;;;15.80;99.90;;;;;;4973199;28;19930;-84
2022/10/25 12:55:32;;;;;;;;;;;15.70;99.90;;;;;;4949186;29;19927;-75
2022/10/25 12:58:07;;;;;;;;;;;16.00;99.90;;;;;;4936020;29;19930;-75
2022/10/25 13:00:37;;;;;;;;;;;16.40;99.90;;;;;;4936195;29;20025;-74
2022/10/25 13:03:29;;;;;;;;;;;16.70;99.90;;;;;;4955174;28;20365;-75
2022/10/25 13:06:03;;;;;;;;;;;16.80;99.90;;;;;;4955539;28;19984;-75
2022/10/25 13:08:30;;;;;;;;;;;17.20;99.90;;;;;;4955472;28;20008;-75
2022/10/25 13:10:57;;;;;;;;;;;17.70;99.90;;;;;;4954102;28;20293;-78
2022/10/25 13:13:24;;;;;;;;;;;18.10;99.90;;;;;;4955422;28;19926;-75
2022/10/25 13:15:51;;;;;;;;;;;18.70;99.90;;;;;;4971392;28;20294;-77
2022/10/25 13:18:25;;;;;;;;;;;19.00;99.90;;;;;;4971279;28;19930;-75
2022/10/25 13:20:51;;;;;;;;;;;18.80;99.90;;;;;;4955137;28;19930;-75
2022/10/25 13:23:35;;;;;;;;;;;18.30;99.90;;;;;;4954111;28;19930;-75
2022/10/25 13:26:03;;;;;;;;;;;18.10;99.90;;;;;;4972285;28;19962;-77
2022/10/25 13:28:29;;;;;;;;;;;18.20;99.90;;;;;;4971514;28;19930;-76
2022/10/25 13:31:15;;;;;;;;;;;18.10;99.90;;;;;;4954645;28;19980;-77
2022/10/25 13:33:41;;;;;;;;;;;17.80;99.90;;;;;;4905883;28;19934;-75
2022/10/25 13:36:08;;;;;;;;;;;17.50;99.90;;;;;;4971309;28;19992;-75
2022/10/25 13:38:36;;;;;;;;;;;17.40;99.90;;;;;;4954326;28;19984;-74
2022/10/25 13:41:06;;;;;;;;;;;17.40;99.90;;;;;;4954512;28;20401;-75
2022/10/25 13:43:32;;;;;;;;;;;17.30;99.90;;;;;;4971533;28;19926;-75
2022/10/25 13:45:58;;;;;;;;;;;17.30;99.90;;;;;;4954126;28;19926;-75
2022/10/25 13:48:28;;;;;;;;;;;17.30;99.90;;;;;;4954149;28;19988;-75
2022/10/25 13:50:59;;;;;;;;;;;17.40;99.90;;;;;;4954685;28;20286;-75
2022/10/25 13:53:32;;;;;;;;;;;17.40;99.90;;;;;;4950155;28;19934;-75
2022/10/25 13:56:01;;;;;;;;;;;17.60;99.90;;;;;;4953047;28;19973;-74
2022/10/25 13:58:26;;;;;;;;;;;17.50;99.90;;;;;;4971351;28;19934;-75
2022/10/25 14:00:52;;;;;;;;;;;17.50;99.90;;;;;;4954605;28;19937;-77
2022/10/25 14:03:18;;;;;;;;;;;17.40;99.90;;;;;;4954043;28;19930;-77
2022/10/25 14:05:56;;;;;;;;;;;17.40;99.90;;;;;;4954373;28;19930;-75
2022/10/25 14:08:27;;;;;;;;;;;17.60;99.90;;;;;;4954133;28;20608;-75
2022/10/25 14:10:54;;;;;;;;;;;17.80;99.90;;;;;;4953571;28;20298;-75
2022/10/25 14:13:26;;;;;;;;;;;17.80;99.90;;;;;;4971362;28;20013;-75
2022/10/25 14:15:55;;;;;;;;;;;17.70;99.90;;;;;;4971963;28;19937;-81
2022/10/25 14:18:22;;;;;;;;;;;17.50;99.90;;;;;;4953459;28;19926;-75
2022/10/25 14:20:55;;;;;;;;;;;17.40;99.90;;;;;;4935467;29;19934;-75
2022/10/25 14:23:22;;;;;;;;;;;17.30;99.90;;;;;;4939830;28;19926;-75
2022/10/25 14:25:51;;;;;;;;;;;17.20;99.90;;;;;;4938718;28;19942;-75